Terminal Aerodrome Forecast
Issued by NWS

Home | Current Version | Previous Version | Text Only | Print | Product List | Glossary On
Versions: 1 2 3 4 5 6 7 8 9 10 11 12 13 14 15 16 17 18
000
FTUS46 KMTR 171605 AAA
TAFOAK
TAF AMD
KOAK 171605Z 1716/1818 29005KT P6SM BKN012
     FM171645 30006KT P6SM SCT015
     FM172000 29012KT P6SM FEW010
     FM180400 29006KT P6SM FEW010
     FM180900 29005KT P6SM BKN009
     FM181200 29004KT P6SM OVC008
     FM181700 29006KT P6SM SCT010=

USA.gov is the U.S. government's official web portal to all federal, state and local government web resources and services.